Time;durP1;ratioP1;P1;durP2;ratioP2;P2;SDS_P1;SDS_P2;PMS_P1;PMS_P2;Temp;Humidity;BMP_temperature;BMP_pressure;BME280_temperature;BME280_humidity;BME280_pressure;Samples;Min_cycle;Max_cycle;Signal;HPM_P1;HPM_P2
2023/01/30 00:00:36;;;;;;;8.17;5.63;;;5.40;99.90;;;;;;5032967;28;20209;-71
2023/01/30 00:03:04;;;;;;;6.83;5.03;;;5.40;99.90;;;;;;5030927;28;20213;-71
2023/01/30 00:05:31;;;;;;;6.10;4.50;;;5.50;99.90;;;;;;5034802;28;20185;-71
2023/01/30 00:07:57;;;;;;;7.97;5.53;;;5.50;99.90;;;;;;5032491;28;20290;-75
2023/01/30 00:10:23;;;;;;;6.60;4.73;;;5.50;99.90;;;;;;5027771;28;20202;-70
2023/01/30 00:12:48;;;;;;;7.17;5.37;;;5.50;99.90;;;;;;5029767;28;20198;-74
2023/01/30 00:15:16;;;;;;;6.73;5.00;;;5.60;99.90;;;;;;5034610;28;20201;-71
2023/01/30 00:17:44;;;;;;;7.40;5.27;;;5.60;99.90;;;;;;5035821;28;20177;-73
2023/01/30 00:20:13;;;;;;;6.40;5.00;;;5.60;99.90;;;;;;5023543;28;20198;-71
2023/01/30 00:22:40;;;;;;;6.93;4.70;;;5.60;99.90;;;;;;5025738;28;20293;-72
2023/01/30 00:25:06;;;;;;;6.87;4.70;;;5.70;99.90;;;;;;5034576;28;20174;-72
2023/01/30 00:27:34;;;;;;;5.27;4.33;;;5.70;99.90;;;;;;5026607;28;20214;-72
2023/01/30 00:30:03;;;;;;;5.57;4.50;;;5.70;99.90;;;;;;5027721;28;20174;-72
2023/01/30 00:32:28;;;;;;;5.87;4.53;;;5.70;99.90;;;;;;5032008;28;20268;-71
2023/01/30 00:34:59;;;;;;;5.20;4.10;;;5.80;99.90;;;;;;5019533;28;20237;-71
2023/01/30 00:37:27;;;;;;;6.17;4.40;;;5.90;99.90;;;;;;5025281;28;20334;-71
2023/01/30 00:39:54;;;;;;;5.30;4.10;;;5.90;99.90;;;;;;5033823;28;20273;-73
2023/01/30 00:47:49;;;;;;;5.50;4.53;;;5.90;99.90;;;;;;5025292;28;20232;-73
2023/01/30 00:50:15;;;;;;;6.17;4.50;;;6.00;99.90;;;;;;5029780;28;20432;-70
2023/01/30 00:52:40;;;;;;;6.00;4.40;;;6.00;99.90;;;;;;5032003;28;20171;-72
2023/01/30 00:55:10;;;;;;;6.77;5.03;;;6.00;99.90;;;;;;5019039;28;20229;-73
2023/01/30 00:57:35;;;;;;;5.00;3.97;;;6.00;99.90;;;;;;5017836;28;20182;-69
2023/01/30 01:00:04;;;;;;;6.17;4.73;;;6.10;99.90;;;;;;5025537;28;20193;-72
2023/01/30 01:02:30;;;;;;;7.00;4.97;;;6.10;99.90;;;;;;5021315;28;20194;-73
2023/01/30 01:04:55;;;;;;;5.83;4.67;;;6.10;99.90;;;;;;5034135;28;20458;-74
2023/01/30 01:07:24;;;;;;;6.53;4.97;;;6.10;99.90;;;;;;5034496;28;20531;-68
2023/01/30 01:09:49;;;;;;;5.80;4.40;;;6.20;99.90;;;;;;5033603;28;20170;-67
2023/01/30 01:12:15;;;;;;;6.87;5.00;;;6.20;99.90;;;;;;5031339;28;20181;-73
2023/01/30 01:14:45;;;;;;;8.27;5.40;;;6.10;99.90;;;;;;5029531;28;20185;-71
2023/01/30 01:17:11;;;;;;;6.93;5.27;;;6.10;99.90;;;;;;5033095;28;20189;-72
2023/01/30 01:19:38;;;;;;;6.50;4.93;;;6.20;99.90;;;;;;5016535;28;20209;-69
2023/01/30 01:22:04;;;;;;;7.03;5.30;;;6.20;99.90;;;;;;5024710;28;20171;-70
2023/01/30 01:24:32;;;;;;;6.30;4.90;;;6.20;99.90;;;;;;5031116;28;20235;-70
2023/01/30 01:26:58;;;;;;;6.33;4.57;;;6.20;99.90;;;;;;5033102;28;20212;-70
2023/01/30 01:29:23;;;;;;;7.07;5.40;;;6.20;99.90;;;;;;5026984;28;20277;-70
2023/01/30 01:31:49;;;;;;;7.80;5.37;;;6.20;99.90;;;;;;5031781;28;20185;-71
2023/01/30 01:34:14;;;;;;;5.83;5.03;;;6.20;99.90;;;;;;5029407;28;20251;-70
2023/01/30 01:36:40;;;;;;;7.17;5.20;;;6.20;99.90;;;;;;5032164;28;20240;-71
2023/01/30 01:39:08;;;;;;;7.90;5.40;;;6.20;99.90;;;;;;5028695;28;20252;-71
2023/01/30 01:41:36;;;;;;;7.10;5.57;;;6.20;99.90;;;;;;5016965;28;20179;-70
2023/01/30 01:44:08;;;;;;;6.20;4.57;;;6.30;99.90;;;;;;5028750;28;20249;-69
2023/01/30 01:46:57;;;;;;;6.97;4.57;;;6.20;99.90;;;;;;5029476;28;20190;-69
2023/01/30 01:49:32;;;;;;;6.43;4.80;;;6.20;99.90;;;;;;5032966;28;20220;-71
2023/01/30 01:52:01;;;;;;;6.23;4.57;;;6.30;99.90;;;;;;5029208;28;20185;-71
2023/01/30 01:54:39;;;;;;;5.73;4.43;;;6.30;99.90;;;;;;5023361;28;20258;-71
2023/01/30 01:57:10;;;;;;;6.37;4.63;;;6.30;99.90;;;;;;5018777;28;20190;-71
2023/01/30 01:59:49;;;;;;;6.60;5.07;;;6.20;99.90;;;;;;5028835;28;20197;-70
2023/01/30 02:02:18;;;;;;;7.17;4.90;;;6.30;99.90;;;;;;5032125;28;20182;-71
2023/01/30 02:05:05;;;;;;;7.53;5.57;;;6.30;99.90;;;;;;5029976;28;20322;-71
2023/01/30 02:07:45;;;;;;;6.97;5.10;;;6.30;99.90;;;;;;5031676;28;20197;-70
2023/01/30 02:10:25;;;;;;;6.10;4.50;;;6.30;99.90;;;;;;5033393;28;20174;-71
2023/01/30 02:12:51;;;;;;;6.77;5.00;;;6.30;99.90;;;;;;5030575;28;20198;-70
2023/01/30 02:15:18;;;;;;;6.70;4.90;;;6.30;99.90;;;;;;5035111;28;20253;-70
2023/01/30 02:17:44;;;;;;;5.83;4.20;;;6.30;99.90;;;;;;5032691;28;20429;-70
2023/01/30 02:20:28;;;;;;;6.73;4.70;;;6.30;99.90;;;;;;5036864;28;20182;-69
2023/01/30 02:23:23;;;;;;;5.23;4.23;;;6.30;99.90;;;;;;5029180;28;20210;-71
2023/01/30 02:26:07;;;;;;;6.20;4.47;;;6.30;99.90;;;;;;5034311;28;20205;-73
2023/01/30 02:28:45;;;;;;;5.70;4.47;;;6.30;99.90;;;;;;5028096;28;20208;-72
2023/01/30 02:31:48;;;;;;;5.50;4.30;;;6.30;99.90;;;;;;5031533;28;20269;-71
2023/01/30 02:34:33;;;;;;;6.37;4.50;;;6.40;99.90;;;;;;5037069;28;20174;-71
2023/01/30 02:36:58;;;;;;;5.93;4.27;;;6.40;99.90;;;;;;5033853;28;20197;-71
2023/01/30 02:39:39;;;;;;;6.07;4.43;;;6.40;99.90;;;;;;5033845;28;20201;-71
2023/01/30 02:42:17;;;;;;;6.70;4.63;;;6.40;99.90;;;;;;5024616;28;20256;-71
2023/01/30 02:45:14;;;;;;;5.67;4.33;;;6.40;99.90;;;;;;5037170;28;20266;-71
2023/01/30 02:47:49;;;;;;;4.90;4.00;;;6.50;99.90;;;;;;5029962;28;20240;-71
2023/01/30 02:50:19;;;;;;;4.90;3.90;;;6.50;99.90;;;;;;5037418;28;20200;-71
2023/01/30 02:52:50;;;;;;;5.10;3.70;;;6.50;99.90;;;;;;5037652;28;20232;-71
2023/01/30 02:55:23;;;;;;;4.50;3.60;;;6.50;99.90;;;;;;5031805;28;20202;-71
2023/01/30 02:57:51;;;;;;;5.30;3.50;;;6.50;99.90;;;;;;5028841;28;20202;-72
2023/01/30 03:00:33;;;;;;;4.47;3.50;;;6.60;99.90;;;;;;5034673;28;20288;-70
2023/01/30 03:03:27;;;;;;;4.97;3.73;;;6.50;99.90;;;;;;5033422;28;20267;-71
2023/01/30 03:06:11;;;;;;;4.23;3.43;;;6.60;99.90;;;;;;5038685;28;20174;-72
2023/01/30 03:08:55;;;;;;;6.00;4.30;;;6.60;99.90;;;;;;5036611;28;20297;-72
2023/01/30 03:11:27;;;;;;;5.83;4.47;;;6.60;99.90;;;;;;5033923;28;20202;-72
2023/01/30 03:14:05;;;;;;;5.33;4.10;;;6.60;99.90;;;;;;5032676;28;20265;-73
2023/01/30 03:16:42;;;;;;;5.63;4.00;;;6.60;99.90;;;;;;5027675;28;20182;-73
2023/01/30 03:19:12;;;;;;;5.10;3.87;;;6.60;99.90;;;;;;5035460;28;20201;-73
2023/01/30 03:21:43;;;;;;;5.27;4.03;;;6.60;99.90;;;;;;5034005;28;20237;-72
2023/01/30 03:24:09;;;;;;;4.33;3.63;;;6.60;99.90;;;;;;5035673;28;20182;-71
2023/01/30 03:26:41;;;;;;;5.13;3.80;;;6.60;99.90;;;;;;5036525;28;20193;-72
2023/01/30 03:29:10;;;;;;;5.23;3.50;;;6.60;99.90;;;;;;5020084;28;20179;-71
2023/01/30 03:31:35;;;;;;;5.67;3.90;;;6.60;99.90;;;;;;5035481;28;20170;-72
2023/01/30 03:34:01;;;;;;;4.13;3.60;;;6.60;99.90;;;;;;5028998;28;20204;-71
2023/01/30 03:36:27;;;;;;;5.83;4.00;;;6.60;99.90;;;;;;5029222;28;20182;-71
2023/01/30 03:38:52;;;;;;;4.63;3.67;;;6.60;99.90;;;;;;5033936;28;20186;-70
2023/01/30 03:41:18;;;;;;;5.43;3.67;;;6.60;99.90;;;;;;5025468;28;20270;-71
2023/01/30 03:43:44;;;;;;;4.83;3.40;;;6.70;99.90;;;;;;5021774;28;20189;-70
2023/01/30 03:46:14;;;;;;;4.43;3.40;;;6.70;99.90;;;;;;5029263;28;20193;-71
2023/01/30 03:48:39;;;;;;;3.00;2.50;;;6.70;99.90;;;;;;5033940;28;20293;-72
2023/01/30 03:51:05;;;;;;;3.87;3.10;;;6.70;99.90;;;;;;5035416;28;20271;-71
2023/01/30 03:53:31;;;;;;;3.60;2.83;;;6.80;99.90;;;;;;5033640;28;20348;-71
2023/01/30 03:55:56;;;;;;;6.40;3.50;;;6.80;99.90;;;;;;5034564;28;20174;-70
2023/01/30 03:58:22;;;;;;;4.90;4.20;;;6.80;99.90;;;;;;5035566;28;20174;-73
2023/01/30 04:00:47;;;;;;;5.50;3.93;;;6.80;99.90;;;;;;5032725;28;20288;-73
2023/01/30 04:03:18;;;;;;;5.80;4.30;;;6.90;99.90;;;;;;5030712;28;20178;-73
2023/01/30 04:05:43;;;;;;;4.87;4.00;;;7.00;99.90;;;;;;5034429;28;20182;-73
2023/01/30 04:08:12;;;;;;;5.97;4.40;;;7.10;99.90;;;;;;5023943;28;20298;-73
2023/01/30 04:10:42;;;;;;;5.80;4.17;;;7.10;99.90;;;;;;5024905;28;20169;-73
2023/01/30 04:13:10;;;;;;;5.20;3.97;;;7.20;99.90;;;;;;5034275;28;20197;-74
2023/01/30 04:15:37;;;;;;;4.40;3.57;;;7.30;99.90;;;;;;5025324;28;20178;-73
2023/01/30 04:18:04;;;;;;;4.10;3.37;;;7.30;99.90;;;;;;5032303;28;20171;-72
2023/01/30 04:20:29;;;;;;;5.20;3.60;;;7.40;99.90;;;;;;5030420;28;20449;-72
2023/01/30 04:22:58;;;;;;;5.80;4.30;;;7.40;99.90;;;;;;5033343;28;20182;-73
2023/01/30 04:25:23;;;;;;;5.50;3.50;;;7.50;99.90;;;;;;5028201;28;20181;-72
2023/01/30 04:27:49;;;;;;;4.43;3.40;;;7.50;99.90;;;;;;5034786;28;20212;-74
2023/01/30 04:30:17;;;;;;;5.40;3.27;;;7.50;99.90;;;;;;5031459;28;20204;-71
2023/01/30 04:32:43;;;;;;;4.40;3.43;;;7.60;99.90;;;;;;5021522;28;20186;-72
2023/01/30 04:35:11;;;;;;;4.73;3.10;;;7.60;99.90;;;;;;5026193;28;20167;-70
2023/01/30 04:37:37;;;;;;;4.63;3.43;;;7.70;99.90;;;;;;5046280;28;20187;-72
2023/01/30 04:40:08;;;;;;;5.77;3.57;;;7.70;99.90;;;;;;5030418;28;20203;-74
2023/01/30 04:42:33;;;;;;;3.67;3.10;;;7.70;99.90;;;;;;5032870;28;20177;-73
2023/01/30 04:45:05;;;;;;;6.30;2.97;;;7.70;99.90;;;;;;5024024;28;20213;-74
2023/01/30 04:47:30;;;;;;;4.37;3.23;;;7.70;99.90;;;;;;5029607;28;20201;-72
2023/01/30 04:49:58;;;;;;;3.47;2.90;;;7.80;99.90;;;;;;5033439;28;20185;-73
2023/01/30 04:52:29;;;;;;;3.43;2.90;;;7.70;99.90;;;;;;5030719;28;20222;-73
2023/01/30 04:54:54;;;;;;;3.30;2.97;;;7.70;99.90;;;;;;5033353;28;20184;-74
2023/01/30 04:57:20;;;;;;;3.50;3.07;;;7.70;99.90;;;;;;5031148;28;20268;-73
2023/01/30 04:59:48;;;;;;;4.23;3.30;;;7.70;99.90;;;;;;5019466;28;20182;-72
2023/01/30 05:02:16;;;;;;;3.70;2.93;;;7.60;99.90;;;;;;5027682;28;20300;-73
2023/01/30 05:04:41;;;;;;;4.10;2.97;;;7.60;99.90;;;;;;5029068;28;20216;-72
2023/01/30 05:07:07;;;;;;;3.63;2.60;;;7.60;99.90;;;;;;5032140;28;20205;-72
2023/01/30 05:09:33;;;;;;;4.97;3.37;;;7.60;99.90;;;;;;5033941;28;20264;-73
2023/01/30 05:11:58;;;;;;;3.47;3.10;;;7.50;99.90;;;;;;5034048;28;20201;-72
2023/01/30 05:14:24;;;;;;;4.27;3.00;;;7.50;99.90;;;;;;5031069;28;20197;-70
2023/01/30 05:16:50;;;;;;;3.17;2.73;;;7.50;99.90;;;;;;5028985;28;20174;-72
2023/01/30 05:19:18;;;;;;;4.17;3.40;;;7.50;99.90;;;;;;5030501;28;20182;-72
2023/01/30 05:21:48;;;;;;;3.97;3.37;;;7.50;99.90;;;;;;5029061;28;20178;-72
2023/01/30 05:24:14;;;;;;;3.60;3.10;;;7.50;99.90;;;;;;5034109;28;20198;-72
2023/01/30 05:26:42;;;;;;;4.13;2.93;;;7.50;99.90;;;;;;5027312;28;20189;-75
2023/01/30 05:29:09;;;;;;;3.87;3.07;;;7.50;99.90;;;;;;5026018;28;20265;-75
2023/01/30 05:31:34;;;;;;;4.87;3.30;;;7.50;99.90;;;;;;5032784;28;20490;-76
2023/01/30 05:34:03;;;;;;;3.57;3.00;;;7.50;99.90;;;;;;5032333;28;20240;-73
2023/01/30 05:36:28;;;;;;;4.70;3.40;;;7.50;99.90;;;;;;5032743;28;20294;-72
2023/01/30 05:38:54;;;;;;;5.27;3.50;;;7.50;99.90;;;;;;5033193;28;20265;-74
2023/01/30 05:41:19;;;;;;;3.80;3.07;;;7.60;99.90;;;;;;5029514;28;20186;-74
2023/01/30 05:43:49;;;;;;;3.73;3.17;;;7.50;99.90;;;;;;5057251;28;20193;-74
2023/01/30 05:46:17;;;;;;;6.23;3.93;;;7.50;99.90;;;;;;5020668;28;20217;-73
2023/01/30 05:48:42;;;;;;;5.30;3.57;;;7.60;99.90;;;;;;5031768;28;20217;-73
2023/01/30 05:51:20;;;;;;;5.40;3.67;;;7.50;99.90;;;;;;5029254;28;20182;-74
2023/01/30 05:53:46;;;;;;;4.83;3.57;;;7.40;99.90;;;;;;5027144;28;20172;-73
2023/01/30 05:56:12;;;;;;;5.33;3.40;;;7.40;99.90;;;;;;5036216;28;20198;-71
2023/01/30 05:58:38;;;;;;;4.93;3.63;;;7.40;99.90;;;;;;5020862;28;20209;-73
2023/01/30 06:01:09;;;;;;;5.47;3.47;;;7.30;99.90;;;;;;5028151;28;20280;-73
2023/01/30 06:03:35;;;;;;;5.30;3.87;;;7.30;99.90;;;;;;5035339;28;20225;-73
2023/01/30 06:06:02;;;;;;;4.83;3.70;;;7.30;99.90;;;;;;5039938;28;20182;-73
2023/01/30 06:08:29;;;;;;;6.33;4.37;;;7.30;99.90;;;;;;5034551;28;20201;-73
2023/01/30 06:10:58;;;;;;;5.40;4.00;;;7.20;99.90;;;;;;5032691;28;20405;-71
2023/01/30 06:13:24;;;;;;;5.10;4.30;;;7.20;99.90;;;;;;5033333;28;20178;-74
2023/01/30 06:15:51;;;;;;;5.30;4.10;;;7.20;99.90;;;;;;5035676;28;20197;-71
2023/01/30 06:18:17;;;;;;;4.27;3.50;;;7.30;99.90;;;;;;5034940;28;20191;-72
2023/01/30 06:20:47;;;;;;;4.77;3.70;;;7.20;99.90;;;;;;5035754;28;20268;-72
2023/01/30 06:23:18;;;;;;;5.43;3.53;;;7.20;99.90;;;;;;5035617;28;20216;-72
2023/01/30 06:25:46;;;;;;;4.53;3.60;;;7.20;99.90;;;;;;5037839;28;20185;-72
2023/01/30 06:28:12;;;;;;;3.97;3.50;;;7.20;99.90;;;;;;5039993;28;20221;-72
2023/01/30 06:30:38;;;;;;;4.43;3.30;;;7.10;99.90;;;;;;5038757;28;20189;-73
2023/01/30 06:33:07;;;;;;;5.37;3.43;;;7.20;99.90;;;;;;5025224;28;20187;-73
2023/01/30 06:35:33;;;;;;;4.53;3.10;;;7.20;99.90;;;;;;5034673;28;20228;-72
2023/01/30 06:37:59;;;;;;;3.00;2.50;;;7.20;99.90;;;;;;5035503;28;20190;-71
2023/01/30 06:40:24;;;;;;;3.77;2.70;;;7.20;99.90;;;;;;5039415;28;20186;-73
2023/01/30 06:42:52;;;;;;;3.50;2.60;;;7.30;99.90;;;;;;5038988;28;20189;-72
2023/01/30 06:45:20;;;;;;;3.63;2.43;;;7.30;99.90;;;;;;5037702;28;20201;-70
2023/01/30 06:47:53;;;;;;;3.80;2.70;;;7.30;99.90;;;;;;5032276;28;20221;-72
2023/01/30 06:50:25;;;;;;;8.60;2.53;;;7.30;99.90;;;;;;5023233;28;20183;-71
2023/01/30 06:52:55;;;;;;;2.57;2.20;;;7.30;99.90;;;;;;5027182;28;20186;-71
2023/01/30 06:55:23;;;;;;;2.90;2.23;;;7.30;99.90;;;;;;5038514;28;20181;-75
2023/01/30 06:58:10;;;;;;;2.80;1.90;;;7.40;99.90;;;;;;5032923;28;20222;-74
2023/01/30 07:00:38;;;;;;;2.60;1.70;;;7.40;99.90;;;;;;5028153;28;20205;-70
2023/01/30 07:03:05;;;;;;;2.33;1.87;;;7.40;99.90;;;;;;5031197;28;20380;-73
2023/01/30 07:05:32;;;;;;;2.40;1.33;;;7.50;99.90;;;;;;5034993;28;20182;-74
2023/01/30 07:07:58;;;;;;;2.43;1.70;;;7.50;99.90;;;;;;5033018;28;20217;-75
2023/01/30 07:10:27;;;;;;;1.53;1.30;;;7.50;99.90;;;;;;5030287;28;20220;-73
2023/01/30 07:12:53;;;;;;;2.07;1.30;;;7.50;99.90;;;;;;5034477;28;20186;-73
2023/01/30 07:15:21;;;;;;;1.47;1.20;;;7.60;99.90;;;;;;5033041;28;20298;-72
2023/01/30 07:17:47;;;;;;;1.17;1.07;;;7.60;99.90;;;;;;5035687;28;20174;-73
2023/01/30 07:20:13;;;;;;;1.67;1.30;;;7.60;99.90;;;;;;5031685;28;20184;-72
2023/01/30 07:22:38;;;;;;;1.20;1.10;;;7.60;99.90;;;;;;5035229;28;20260;-74
2023/01/30 07:25:07;;;;;;;1.47;1.20;;;7.70;99.90;;;;;;5034672;28;20196;-73
2023/01/30 07:27:33;;;;;;;1.83;1.13;;;7.70;99.90;;;;;;5032414;28;20202;-72
2023/01/30 07:30:01;;;;;;;1.47;1.10;;;7.70;99.90;;;;;;5033473;28;20235;-73
2023/01/30 07:32:29;;;;;;;1.77;1.37;;;7.80;99.90;;;;;;5035512;28;20185;-72
2023/01/30 07:34:59;;;;;;;1.80;1.20;;;7.80;99.90;;;;;;5035856;28;20166;-73
2023/01/30 07:37:27;;;;;;;1.40;1.10;;;7.80;99.90;;;;;;5035558;28;20214;-72
2023/01/30 07:39:52;;;;;;;1.43;1.10;;;7.80;99.90;;;;;;5033861;28;20198;-72
2023/01/30 07:42:18;;;;;;;1.97;0.83;;;7.80;99.90;;;;;;5032593;28;20182;-73
2023/01/30 07:44:43;;;;;;;1.37;1.10;;;7.80;99.90;;;;;;5030762;28;20181;-72
2023/01/30 07:47:09;;;;;;;1.03;0.90;;;7.80;99.90;;;;;;5030865;28;20287;-73
2023/01/30 07:49:35;;;;;;;1.53;0.90;;;7.80;99.90;;;;;;5033764;28;20208;-69
2023/01/30 07:52:00;;;;;;;2.47;1.10;;;7.80;99.90;;;;;;5026871;28;20205;-71
2023/01/30 07:54:26;;;;;;;1.70;0.90;;;7.80;99.90;;;;;;5024571;28;20210;-73
2023/01/30 07:56:54;;;;;;;1.03;0.90;;;7.80;99.90;;;;;;5032335;28;20277;-72
2023/01/30 07:59:19;;;;;;;1.40;1.00;;;7.80;99.90;;;;;;5031853;28;20190;-73
2023/01/30 08:01:47;;;;;;;0.77;0.70;;;7.80;99.90;;;;;;5028397;28;20193;-73
2023/01/30 08:04:13;;;;;;;0.80;0.77;;;7.80;99.90;;;;;;5032169;28;20183;-73
2023/01/30 08:06:38;;;;;;;1.00;0.80;;;7.80;99.90;;;;;;5020460;28;20239;-72
2023/01/30 08:09:05;;;;;;;1.03;0.70;;;7.80;99.90;;;;;;5032008;28;20354;-73
2023/01/30 08:11:31;;;;;;;1.50;1.10;;;7.90;99.90;;;;;;5029825;28;20209;-71
2023/01/30 08:13:59;;;;;;;1.27;1.00;;;7.90;99.90;;;;;;5028240;28;20175;-73
2023/01/30 08:16:25;;;;;;;0.93;0.80;;;7.90;99.90;;;;;;5032965;28;20174;-71
2023/01/30 08:18:50;;;;;;;2.23;1.00;;;7.90;99.90;;;;;;5032066;28;20203;-73
2023/01/30 08:21:16;;;;;;;1.37;1.10;;;7.90;99.90;;;;;;5017609;28;20197;-72
2023/01/30 08:23:42;;;;;;;2.83;1.30;;;7.90;99.90;;;;;;5026894;28;20178;-72
2023/01/30 08:26:12;;;;;;;1.13;1.03;;;7.80;99.90;;;;;;5017282;28;20217;-73
2023/01/30 08:28:41;;;;;;;1.60;1.40;;;7.70;99.90;;;;;;5031393;28;20206;-73
2023/01/30 08:31:11;;;;;;;1.27;1.17;;;7.80;99.90;;;;;;5024223;28;20179;-72
2023/01/30 08:33:37;;;;;;;1.90;1.20;;;7.70;99.90;;;;;;5029574;28;20212;-72
2023/01/30 08:36:03;;;;;;;1.93;1.33;;;7.70;99.90;;;;;;5035134;28;20182;-72
2023/01/30 08:38:31;;;;;;;1.57;1.30;;;7.70;99.90;;;;;;5034346;28;20215;-73
2023/01/30 08:40:58;;;;;;;2.17;1.80;;;7.70;99.90;;;;;;5026812;28;22134;-72
2023/01/30 08:43:24;;;;;;;3.53;2.27;;;7.70;99.90;;;;;;5025589;28;20182;-73
2023/01/30 08:45:53;;;;;;;3.37;2.10;;;7.70;99.90;;;;;;5024543;28;20217;-73
2023/01/30 08:48:19;;;;;;;2.80;2.50;;;7.80;99.90;;;;;;5015638;28;20270;-71
2023/01/30 08:50:44;;;;;;;2.60;2.40;;;7.80;99.90;;;;;;5035365;28;20232;-72
2023/01/30 08:53:10;;;;;;;3.17;2.70;;;7.80;99.90;;;;;;5033946;28;20449;-66
2023/01/30 08:55:37;;;;;;;3.73;2.67;;;7.80;99.90;;;;;;5015841;28;20190;-66
2023/01/30 08:58:03;;;;;;;3.23;2.60;;;7.90;99.90;;;;;;5019977;28;20190;-63
2023/01/30 09:00:31;;;;;;;4.10;2.57;;;8.00;99.90;;;;;;5022800;28;20185;-64
2023/01/30 09:03:02;;;;;;;3.33;2.80;;;8.10;99.90;;;;;;5022411;28;20241;-67
2023/01/30 09:05:30;;;;;;;5.30;3.50;;;8.10;99.90;;;;;;5034279;28;20182;-66
2023/01/30 09:07:58;;;;;;;4.07;3.40;;;8.10;99.90;;;;;;5030917;28;20186;-63
2023/01/30 09:10:29;;;;;;;5.43;3.43;;;8.20;99.90;;;;;;5023188;28;20178;-65
2023/01/30 09:12:54;;;;;;;4.63;3.50;;;8.30;99.90;;;;;;5034316;28;20274;-66
2023/01/30 09:15:20;;;;;;;6.80;3.93;;;8.40;99.90;;;;;;5021924;28;20198;-65
2023/01/30 09:17:48;;;;;;;7.20;3.97;;;8.60;99.90;;;;;;5024955;28;20190;-65
2023/01/30 09:20:17;;;;;;;5.80;3.87;;;8.60;99.90;;;;;;5034084;28;20442;-65
2023/01/30 09:22:43;;;;;;;7.27;4.10;;;8.70;99.90;;;;;;5026499;28;20232;-66
2023/01/30 09:25:08;;;;;;;5.60;3.50;;;8.80;99.90;;;;;;5033137;28;20194;-65
2023/01/30 09:27:35;;;;;;;7.03;3.73;;;9.10;99.90;;;;;;5032229;28;20190;-66
2023/01/30 09:30:04;;;;;;;6.37;3.90;;;9.50;99.90;;;;;;5032113;28;20241;-66
2023/01/30 09:32:30;;;;;;;8.70;4.00;;;9.80;99.90;;;;;;5027733;28;20174;-68
2023/01/30 09:34:58;;;;;;;5.80;3.60;;;10.10;99.90;;;;;;5019550;28;20177;-66
2023/01/30 09:37:26;;;;;;;5.30;2.87;;;10.40;99.90;;;;;;5031876;28;20209;-66
2023/01/30 09:39:51;;;;;;;6.07;3.00;;;10.80;99.90;;;;;;5028750;28;20170;-65
2023/01/30 09:42:32;;;;;;;7.25;2.92;;;11.00;99.90;;;;;;5030221;28;20236;-66
2023/01/30 09:45:20;;;;;;;6.50;2.50;;;11.30;99.90;;;;;;5019755;28;20201;-67
2023/01/30 09:48:13;;;;;;;7.68;2.53;;;11.50;99.90;;;;;;5033857;28;20241;-66
2023/01/30 09:51:08;;;;;;;8.88;2.60;;;11.60;99.90;;;;;;5018903;28;20194;-65
2023/01/30 09:54:00;;;;;;;6.50;3.30;;;11.80;99.90;;;;;;5028594;28;20286;-60
2023/01/30 09:56:28;;;;;;;9.23;3.88;;;11.90;99.90;;;;;;5027473;28;20169;-65
2023/01/30 09:59:00;;;;;;;8.15;3.80;;;11.90;99.90;;;;;;5029423;28;20182;-66
2023/01/30 10:01:50;;;;;;;8.45;4.38;;;11.90;99.90;;;;;;5033572;28;20212;-66
2023/01/30 10:04:38;;;;;;;8.20;3.45;;;11.80;99.90;;;;;;5027607;28;20174;-65
2023/01/30 10:07:09;;;;;;;8.20;3.60;;;11.80;99.90;;;;;;5028740;28;20178;-64
2023/01/30 10:09:56;;;;;;;6.97;3.95;;;11.70;99.90;;;;;;5032775;28;20201;-66
2023/01/30 10:12:37;;;;;;;6.15;3.13;;;11.70;99.90;;;;;;5026002;28;20192;-66
2023/01/30 10:15:23;;;;;;;4.40;2.90;;;11.70;99.90;;;;;;5024539;28;20198;-65
2023/01/30 10:18:04;;;;;;;5.82;2.83;;;11.80;99.90;;;;;;5026305;28;20201;-66
2023/01/30 10:20:51;;;;;;;6.22;2.85;;;11.70;99.90;;;;;;5031935;28;20200;-66
2023/01/30 10:23:32;;;;;;;8.80;3.03;;;11.70;99.90;;;;;;5015595;28;20209;-66
2023/01/30 10:26:13;;;;;;;8.30;2.80;;;11.60;99.90;;;;;;5022580;28;20206;-66
2023/01/30 10:28:56;;;;;;;9.13;2.70;;;11.50;99.90;;;;;;5016578;28;20228;-64
2023/01/30 10:31:27;;;;;;;5.57;2.65;;;11.30;99.90;;;;;;5025900;28;20175;-66
2023/01/30 10:34:01;;;;;;;7.80;2.80;;;11.10;99.90;;;;;;5031325;28;20387;-67
2023/01/30 10:36:37;;;;;;;5.95;2.15;;;10.90;99.90;;;;;;5033393;28;20256;-67
2023/01/30 10:39:26;;;;;;;6.25;2.38;;;10.90;99.90;;;;;;5019865;28;20182;-67
2023/01/30 10:42:27;;;;;;;5.45;1.80;;;10.70;99.90;;;;;;5025633;28;20202;-66
2023/01/30 10:44:59;;;;;;;6.90;2.08;;;10.70;99.90;;;;;;4986575;28;20186;-65
2023/01/30 10:48:09;;;;;;;7.65;2.28;;;10.70;99.90;;;;;;5045627;28;20216;-67
2023/01/30 10:51:07;;;;;;;8.93;2.10;;;10.60;99.90;;;;;;5057092;28;20195;-67
2023/01/30 10:53:42;;;;;;;5.45;1.98;;;10.50;99.90;;;;;;5035007;28;20179;-66
2023/01/30 10:56:35;;;;;;;6.65;2.17;;;10.50;99.90;;;;;;5017122;28;20202;-65
2023/01/30 10:59:18;;;;;;;9.52;2.03;;;10.50;99.90;;;;;;5017111;28;20175;-66
2023/01/30 11:01:56;;;;;;;8.27;2.58;;;10.60;99.90;;;;;;5036155;28;20206;-67
2023/01/30 11:04:35;;;;;;;7.63;2.13;;;10.60;99.90;;;;;;5034718;28;20279;-65
2023/01/30 11:07:02;;;;;;;6.45;2.00;;;10.70;99.90;;;;;;5036339;28;20188;-62
2023/01/30 11:09:43;;;;;;;7.13;2.22;;;10.70;99.90;;;;;;5033045;28;20187;-66
2023/01/30 11:12:08;;;;;;;9.38;1.80;;;10.70;99.90;;;;;;5036179;28;20227;-66
2023/01/30 11:14:58;;;;;;;10.27;2.80;;;10.70;99.90;;;;;;5036399;28;20193;-66
2023/01/30 11:17:37;;;;;;;12.32;2.47;;;10.70;99.90;;;;;;5032982;28;20209;-66
2023/01/30 11:20:24;;;;;;;6.90;1.70;;;10.60;99.90;;;;;;5030977;28;20178;-66
2023/01/30 11:23:08;;;;;;;4.57;1.95;;;10.50;99.90;;;;;;5033617;28;20200;-67
2023/01/30 11:25:53;;;;;;;8.82;2.00;;;10.50;99.90;;;;;;5032345;28;20213;-67
2023/01/30 11:28:19;;;;;;;6.40;2.00;;;10.40;99.90;;;;;;5034954;28;20232;-66
2023/01/30 11:30:57;;;;;;;4.85;1.75;;;10.40;99.90;;;;;;5035390;28;20265;-67
2023/01/30 11:33:34;;;;;;;7.05;2.10;;;10.50;99.90;;;;;;5035416;28;20197;-66
2023/01/30 11:36:06;;;;;;;9.38;1.92;;;10.40;99.90;;;;;;5036241;28;20239;-66
2023/01/30 11:38:39;;;;;;;9.18;2.30;;;10.40;99.90;;;;;;5032236;28;20179;-65
2023/01/30 11:41:17;;;;;;;6.70;2.28;;;10.30;99.90;;;;;;5032480;28;20214;-66
2023/01/30 11:43:43;;;;;;;6.38;2.17;;;10.30;99.90;;;;;;5034623;28;20169;-66
2023/01/30 11:46:14;;;;;;;6.03;1.85;;;10.30;99.90;;;;;;5035587;28;20194;-66
2023/01/30 11:48:53;;;;;;;6.15;1.77;;;10.30;99.90;;;;;;5022302;28;20213;-68
2023/01/30 11:51:22;;;;;;;7.22;2.42;;;10.20;99.90;;;;;;5034089;28;20211;-65
2023/01/30 11:53:53;;;;;;;6.85;2.17;;;10.20;99.90;;;;;;5031536;28;20480;-66
2023/01/30 11:56:21;;;;;;;10.27;2.77;;;10.10;99.90;;;;;;5032273;28;20194;-66
2023/01/30 11:59:00;;;;;;;7.88;2.28;;;10.10;99.90;;;;;;5024672;28;20198;-66
2023/01/30 12:01:29;;;;;;;6.80;1.92;;;10.10;99.90;;;;;;5016505;28;20266;-66
2023/01/30 12:03:56;;;;;;;6.55;1.88;;;10.10;99.90;;;;;;5026237;28;20309;-66
2023/01/30 12:06:35;;;;;;;7.63;2.00;;;10.00;99.90;;;;;;5015176;28;20174;-66
2023/01/30 12:09:07;;;;;;;8.10;2.42;;;10.00;99.90;;;;;;5034437;28;20210;-66
2023/01/30 12:11:39;;;;;;;5.28;1.60;;;10.00;99.90;;;;;;5020153;28;20183;-64
2023/01/30 12:14:24;;;;;;;9.67;2.30;;;10.00;99.90;;;;;;5032904;28;20178;-66
2023/01/30 12:16:58;;;;;;;6.93;1.92;;;10.00;99.90;;;;;;5020620;28;20185;-66
2023/01/30 12:19:42;;;;;;;6.25;2.00;;;9.90;99.90;;;;;;5027870;28;20193;-68
2023/01/30 12:22:34;;;;;;;8.30;1.90;;;10.00;99.90;;;;;;5020390;28;20180;-67
2023/01/30 12:25:09;;;;;;;6.43;2.20;;;10.00;99.90;;;;;;5025924;28;20201;-66
2023/01/30 12:28:12;;;;;;;6.85;2.20;;;10.00;99.90;;;;;;5027835;28;20198;-67
2023/01/30 12:30:49;;;;;;;11.23;2.30;;;10.10;99.90;;;;;;5016817;28;20175;-66
2023/01/30 12:33:15;;;;;;;5.72;1.90;;;10.10;99.90;;;;;;5015167;28;20285;-67
2023/01/30 12:35:59;;;;;;;4.53;1.60;;;10.00;99.90;;;;;;5019074;28;20257;-66
2023/01/30 12:38:33;;;;;;;7.95;2.13;;;10.10;99.90;;;;;;5015633;28;20233;-64
2023/01/30 12:41:35;;;;;;;6.18;2.00;;;10.10;99.90;;;;;;5024826;28;20205;-66
2023/01/30 12:44:19;;;;;;;5.90;1.95;;;10.10;99.90;;;;;;5025140;28;20197;-67
2023/01/30 12:47:00;;;;;;;9.05;1.80;;;10.10;99.90;;;;;;5027427;28;20284;-66
2023/01/30 12:49:47;;;;;;;5.93;1.75;;;10.00;99.90;;;;;;5034631;28;20192;-65
2023/01/30 12:52:44;;;;;;;6.17;1.70;;;10.00;99.90;;;;;;5014955;28;20178;-66
2023/01/30 12:55:51;;;;;;;6.75;2.03;;;9.90;99.90;;;;;;5027102;28;20254;-65
2023/01/30 12:58:27;;;;;;;10.97;2.17;;;9.90;99.90;;;;;;5026558;28;20181;-65
2023/01/30 13:00:58;;;;;;;7.63;2.10;;;9.80;99.90;;;;;;5047198;28;20265;-62
2023/01/30 13:03:47;;;;;;;7.17;1.77;;;9.80;99.90;;;;;;5030704;28;20180;-65
2023/01/30 13:06:12;;;;;;;4.70;1.60;;;9.70;99.90;;;;;;5015415;28;20190;-65
2023/01/30 13:09:03;;;;;;;9.60;2.03;;;9.80;99.90;;;;;;5030256;28;20197;-62
2023/01/30 13:11:43;;;;;;;7.00;1.77;;;9.70;99.90;;;;;;5030897;28;20267;-66
2023/01/30 13:14:24;;;;;;;7.80;1.77;;;9.70;99.90;;;;;;5025490;28;20200;-64
2023/01/30 13:17:01;;;;;;;5.63;1.70;;;9.70;99.90;;;;;;5030713;28;20276;-67
2023/01/30 13:20:06;;;;;;;6.83;1.70;;;9.60;99.90;;;;;;5026346;28;20174;-63
2023/01/30 13:22:45;;;;;;;7.07;1.93;;;9.70;99.90;;;;;;5001545;28;20209;-67
2023/01/30 13:25:20;;;;;;;8.50;1.90;;;9.60;99.90;;;;;;5032187;28;20201;-62